createdAt,value
2022-12-11T00:02:51.471Z,95751.94
2022-12-11T00:05:48.341Z,95741.00
2022-12-11T00:08:45.783Z,95736.63
2022-12-11T00:11:42.773Z,95738.44
2022-12-11T00:14:39.614Z,95734.47
2022-12-11T00:17:36.602Z,95734.97
2022-12-11T00:20:33.444Z,95733.91
2022-12-11T00:23:30.350Z,95730.03
2022-12-11T00:26:27.253Z,95736.44
2022-12-11T00:29:24.069Z,95735.56
2022-12-11T00:32:20.929Z,95739.28
2022-12-11T00:35:17.823Z,95733.81
2022-12-11T00:38:21.550Z,95742.81
2022-12-11T00:41:19.202Z,95739.38
2022-12-11T00:44:16.052Z,95734.16
2022-12-11T00:47:12.882Z,95740.25
2022-12-11T00:50:09.827Z,95744.72
2022-12-11T00:53:07.729Z,95748.78
2022-12-11T00:56:19.865Z,95740.44
2022-12-11T00:59:16.722Z,95751.69
2022-12-11T01:02:13.860Z,95751.63
2022-12-11T01:05:11.661Z,95752.50
2022-12-11T01:08:08.836Z,95754.88
2022-12-11T01:11:10.384Z,95768.06
2022-12-11T01:14:07.495Z,95751.56
2022-12-11T01:17:04.421Z,95761.31
2022-12-11T01:20:01.297Z,95760.06
2022-12-11T01:23:00.731Z,95769.56
2022-12-11T01:25:57.536Z,95770.38
2022-12-11T01:28:54.547Z,95768.91
2022-12-11T01:31:51.368Z,95769.31
2022-12-11T01:34:48.258Z,95770.00
2022-12-11T01:37:45.616Z,95769.56
2022-12-11T01:40:53.168Z,95759.34
2022-12-11T01:44:04.969Z,95756.06
2022-12-11T01:47:01.933Z,95763.63
2022-12-11T01:49:58.781Z,95753.94
2022-12-11T01:52:55.640Z,95755.03
2022-12-11T01:55:54.977Z,95765.34
2022-12-11T01:59:00.097Z,95762.09
2022-12-11T02:02:22.428Z,95752.03
2022-12-11T02:05:19.483Z,95749.63
2022-12-11T02:08:17.106Z,95756.06
2022-12-11T02:11:23.371Z,95763.94
2022-12-11T02:14:52.909Z,95752.34
2022-12-11T02:18:42.225Z,95741.41
2022-12-11T02:21:47.885Z,95749.81
2022-12-11T02:25:05.119Z,95742.75
2022-12-11T02:28:49.058Z,95749.03
2022-12-11T02:32:00.877Z,95742.03
2022-12-11T02:35:13.525Z,95752.34
2022-12-11T02:38:24.335Z,95749.41
2022-12-11T02:41:22.049Z,95738.88
2022-12-11T02:44:30.366Z,95736.78
2022-12-11T02:47:32.046Z,95732.69
2022-12-11T02:50:30.156Z,95732.34
2022-12-11T02:53:30.986Z,95731.72
2022-12-11T02:56:51.119Z,95743.16
2022-12-11T02:59:48.057Z,95739.16
2022-12-11T03:02:45.851Z,95743.69
2022-12-11T03:05:43.288Z,95738.72
2022-12-11T03:08:40.123Z,95753.06
2022-12-11T03:11:36.966Z,95744.34
2022-12-11T03:14:33.821Z,95745.78
2022-12-11T03:17:45.607Z,95741.41
2022-12-11T03:20:45.851Z,95742.13
2022-12-11T03:23:57.172Z,95734.81
2022-12-11T03:27:11.013Z,95736.25
2022-12-11T03:30:17.263Z,95735.69
2022-12-11T03:33:22.088Z,95735.47
2022-12-11T03:36:25.692Z,95717.81
2022-12-11T03:39:33.152Z,95734.56
2022-12-11T03:42:31.213Z,95733.44
2022-12-11T03:45:30.091Z,95729.03
2022-12-11T03:48:34.100Z,95731.47
2022-12-11T03:51:32.695Z,95732.66
2022-12-11T03:54:30.683Z,95736.56
2022-12-11T03:57:33.703Z,95730.66
2022-12-11T04:00:30.680Z,95737.81
2022-12-11T04:03:27.743Z,95721.63
2022-12-11T04:06:24.587Z,95723.16
2022-12-11T04:09:21.462Z,95726.41
2022-12-11T04:12:18.372Z,95716.63
2022-12-11T04:15:15.265Z,95715.59
2022-12-11T04:18:30.519Z,95719.56
2022-12-11T04:21:45.918Z,95709.97
2022-12-11T04:24:42.783Z,95732.50
2022-12-11T04:27:51.516Z,95724.97
2022-12-11T04:30:50.126Z,95724.63
2022-12-11T04:33:47.490Z,95714.09
2022-12-11T04:36:44.476Z,95708.22
2022-12-11T04:39:41.303Z,95706.94
2022-12-11T04:42:38.136Z,95696.56
2022-12-11T04:45:35.240Z,95698.38
2022-12-11T04:48:32.240Z,95694.72
2022-12-11T04:51:29.484Z,95696.84
2022-12-11T04:54:26.730Z,95704.88
2022-12-11T04:57:23.810Z,95693.84
2022-12-11T05:00:20.767Z,95714.25
2022-12-11T05:03:17.824Z,95710.69
2022-12-11T05:06:15.189Z,95709.25
2022-12-11T05:09:13.317Z,95712.19
2022-12-11T05:12:10.323Z,95708.28
2022-12-11T05:15:08.622Z,95704.63
2022-12-11T05:18:05.798Z,95712.56
2022-12-11T05:21:07.304Z,95705.66
2022-12-11T05:24:06.259Z,95705.75
2022-12-11T05:27:03.170Z,95708.91
2022-12-11T05:30:00.185Z,95701.94
2022-12-11T05:32:57.561Z,95707.50
2022-12-11T05:35:54.738Z,95707.34
2022-12-11T05:38:53.201Z,95711.91
2022-12-11T05:41:50.090Z,95703.13
2022-12-11T05:44:49.299Z,95707.88
2022-12-11T05:47:46.347Z,95703.91
2022-12-11T05:50:43.447Z,95699.84
2022-12-11T05:53:41.751Z,95698.38
2022-12-11T05:56:38.750Z,95694.88
2022-12-11T05:59:35.688Z,95705.91
2022-12-11T06:02:35.893Z,95699.22
2022-12-11T06:05:37.345Z,95701.06
2022-12-11T06:08:35.037Z,95700.91
2022-12-11T06:11:33.829Z,95700.75
2022-12-11T06:14:30.719Z,95699.41
2022-12-11T06:17:27.726Z,95690.13
2022-12-11T06:20:24.635Z,95690.91
2022-12-11T06:23:21.576Z,95689.63
2022-12-11T06:26:20.020Z,95692.91
2022-12-11T06:29:16.957Z,95697.19
2022-12-11T06:32:13.928Z,95690.03
2022-12-11T06:35:12.186Z,95689.34
2022-12-11T06:38:10.749Z,95693.53
2022-12-11T06:41:08.826Z,95691.88
2022-12-11T06:44:05.720Z,95689.88
2022-12-11T06:47:04.241Z,95681.16
2022-12-11T06:50:02.411Z,95697.41
2022-12-11T06:52:59.407Z,95689.88
2022-12-11T06:55:56.355Z,95692.75
2022-12-11T06:58:53.505Z,95702.50
2022-12-11T07:01:50.487Z,95702.13
2022-12-11T07:04:53.330Z,95700.91
2022-12-11T07:07:54.918Z,95702.66
2022-12-11T07:10:51.796Z,95697.41
2022-12-11T07:13:48.810Z,95696.38
2022-12-11T07:16:45.773Z,95697.41
2022-12-11T07:19:42.729Z,95696.53
2022-12-11T07:22:46.051Z,95689.81
2022-12-11T07:25:43.439Z,95702.66
2022-12-11T07:28:41.547Z,95692.66
2022-12-11T07:31:38.647Z,95697.03
2022-12-11T07:34:35.548Z,95697.91
2022-12-11T07:37:32.384Z,95694.03
2022-12-11T07:40:29.316Z,95703.13
2022-12-11T07:43:26.153Z,95705.84
2022-12-11T07:46:26.686Z,95692.25
2022-12-11T07:49:23.486Z,95715.38
2022-12-11T07:52:20.698Z,95720.22
2022-12-11T07:55:17.881Z,95716.16
2022-12-11T07:58:14.779Z,95722.81
2022-12-11T08:01:21.819Z,95720.44
2022-12-11T08:04:18.753Z,95727.09
2022-12-11T08:07:15.628Z,95714.25
2022-12-11T08:10:13.064Z,95717.72
2022-12-11T08:13:10.031Z,95716.53
2022-12-11T08:16:10.196Z,95720.72
2022-12-11T08:19:07.049Z,95720.97
2022-12-11T08:22:04.313Z,95721.78
2022-12-11T08:25:01.157Z,95715.81
2022-12-11T08:27:58.050Z,95712.41
2022-12-11T08:30:54.938Z,95716.63
2022-12-11T08:33:52.762Z,95709.69
2022-12-11T08:36:49.623Z,95707.84
2022-12-11T08:39:47.049Z,95706.91
2022-12-11T08:42:44.180Z,95708.31
2022-12-11T08:45:41.196Z,95712.56
2022-12-11T08:48:40.500Z,95713.97
2022-12-11T08:51:37.363Z,95711.50
2022-12-11T08:54:34.212Z,95713.19
2022-12-11T08:57:31.067Z,95709.69
2022-12-11T09:00:28.175Z,95712.16
2022-12-11T09:03:25.886Z,95716.19
2022-12-11T09:06:25.897Z,95721.44
2022-12-11T09:09:22.786Z,95721.97
2022-12-11T09:12:19.665Z,95723.47
2022-12-11T09:15:16.729Z,95732.47
2022-12-11T09:18:13.630Z,95733.91
2022-12-11T09:21:17.051Z,95738.13
2022-12-11T09:24:14.963Z,95737.31
2022-12-11T09:27:11.859Z,95727.75
2022-12-11T09:30:09.503Z,95735.38
2022-12-11T09:33:06.443Z,95741.16
2022-12-11T09:36:05.146Z,95726.69
2022-12-11T09:39:05.214Z,95726.81
2022-12-11T09:42:12.146Z,95727.06
2022-12-11T09:45:15.913Z,95728.31
2022-12-11T09:48:17.294Z,95723.13
2022-12-11T09:51:42.437Z,95725.63
2022-12-11T09:54:55.944Z,95717.81
2022-12-11T09:58:10.957Z,95714.34
2022-12-11T10:01:44.159Z,95716.72
2022-12-11T10:05:05.561Z,95717.75
2022-12-11T10:08:35.882Z,95701.28
2022-12-11T10:11:58.945Z,95699.78
2022-12-11T10:15:19.713Z,95694.25
2022-12-11T10:18:23.000Z,95691.72
2022-12-11T10:21:20.783Z,95698.56
2022-12-11T10:25:09.466Z,95687.94
2022-12-11T10:27:53.911Z,95694.03
2022-12-11T10:31:05.997Z,95687.22
2022-12-11T10:34:12.064Z,95678.56
2022-12-11T10:37:09.004Z,95696.41
2022-12-11T10:40:06.996Z,95678.91
2022-12-11T10:43:03.935Z,95667.75
2022-12-11T10:46:00.894Z,95667.75
2022-12-11T10:49:00.450Z,95670.69
2022-12-11T10:52:01.378Z,95661.03
2022-12-11T10:55:27.408Z,95663.22
2022-12-11T10:58:29.404Z,95664.91
2022-12-11T11:01:32.624Z,95662.25
2022-12-11T11:04:36.812Z,95659.53
2022-12-11T11:07:34.353Z,95668.97
2022-12-11T11:10:31.548Z,95661.38
2022-12-11T11:13:31.055Z,95647.34
2022-12-11T11:16:28.071Z,95643.63
2022-12-11T11:19:35.740Z,95651.22
2022-12-11T11:22:33.347Z,95651.38
2022-12-11T11:25:33.308Z,95653.31
2022-12-11T11:28:36.087Z,95656.34
2022-12-11T11:31:36.762Z,95649.97
2022-12-11T11:34:33.711Z,95653.31
2022-12-11T11:37:34.578Z,95640.25
2022-12-11T11:40:41.132Z,95647.09
2022-12-11T11:43:47.011Z,95649.84
2022-12-11T11:46:58.370Z,95647.81
2022-12-11T11:50:16.248Z,95640.78
2022-12-11T11:53:27.002Z,95637.22
2022-12-11T11:56:31.360Z,95646.09
2022-12-11T11:59:41.602Z,95644.16
2022-12-11T12:02:38.631Z,95637.69
2022-12-11T12:05:58.162Z,95632.50
2022-12-11T12:09:22.625Z,95628.59
2022-12-11T12:12:52.150Z,95630.50
2022-12-11T12:16:00.984Z,95637.16
2022-12-11T12:19:15.945Z,95643.56
2022-12-11T12:22:57.578Z,95643.06
2022-12-11T12:26:24.498Z,95644.44
2022-12-11T12:30:18.796Z,95641.00
2022-12-11T12:33:43.596Z,95646.72
2022-12-11T12:37:05.220Z,95650.00
2022-12-11T12:40:29.470Z,95643.19
2022-12-11T12:43:38.225Z,95630.38
2022-12-11T12:46:41.377Z,95638.56
2022-12-11T12:49:49.025Z,95636.44
2022-12-11T12:52:47.007Z,95638.66
2022-12-11T12:55:45.532Z,95630.06
2022-12-11T12:58:45.594Z,95630.13
2022-12-11T13:01:52.201Z,95629.63
2022-12-11T13:05:00.628Z,95631.28
2022-12-11T13:08:04.816Z,95628.50
2022-12-11T13:11:12.150Z,95630.38
2022-12-11T13:14:28.135Z,95625.81
2022-12-11T13:17:37.009Z,95625.44
2022-12-11T13:20:34.833Z,95625.38
2022-12-11T13:23:35.213Z,95618.25
2022-12-11T13:26:33.987Z,95618.31
2022-12-11T13:29:40.806Z,95626.84
2022-12-11T13:32:37.896Z,95629.00
2022-12-11T13:35:39.034Z,95623.47
2022-12-11T13:38:39.368Z,95626.91
2022-12-11T13:41:38.291Z,95626.88
2022-12-11T13:44:43.672Z,95624.94
2022-12-11T13:47:41.807Z,95623.59
2022-12-11T13:50:43.739Z,95631.22
2022-12-11T13:53:40.708Z,95624.59
2022-12-11T13:56:37.682Z,95631.75
2022-12-11T13:59:38.129Z,95620.16
2022-12-11T14:02:42.506Z,95623.78
2022-12-11T14:05:41.988Z,95623.31
2022-12-11T14:08:44.071Z,95625.81
2022-12-11T14:11:42.676Z,95630.25
2022-12-11T14:14:49.837Z,95628.22
2022-12-11T14:17:51.519Z,95629.22
2022-12-11T14:21:02.610Z,95635.03
2022-12-11T14:24:01.162Z,95631.38
2022-12-11T14:26:58.336Z,95632.28
2022-12-11T14:29:55.387Z,95625.34
2022-12-11T14:33:05.231Z,95629.00
2022-12-11T14:36:03.227Z,95638.59
2022-12-11T14:39:13.795Z,95638.06
2022-12-11T14:42:17.631Z,95635.22
2022-12-11T14:45:31.386Z,95637.75
2022-12-11T14:48:40.125Z,95634.75
2022-12-11T14:51:40.968Z,95640.78
2022-12-11T14:54:51.194Z,95636.06
2022-12-11T14:57:52.409Z,95648.88
2022-12-11T15:01:07.644Z,95644.34
2022-12-11T15:04:24.572Z,95643.53
2022-12-11T15:07:22.105Z,95646.09
2022-12-11T15:10:25.885Z,95638.78
2022-12-11T15:13:25.956Z,95640.78
2022-12-11T15:16:26.722Z,95636.28
2022-12-11T15:19:33.200Z,95642.13
2022-12-11T15:22:32.366Z,95646.78
2022-12-11T15:25:30.356Z,95647.28
2022-12-11T15:28:33.227Z,95644.13
2022-12-11T15:31:33.625Z,95639.44
2022-12-11T15:34:45.871Z,95645.72
2022-12-11T15:37:57.047Z,95645.53
2022-12-11T15:40:53.936Z,95644.34
2022-12-11T15:43:58.272Z,95652.28
2022-12-11T15:46:55.901Z,95647.50
2022-12-11T15:50:19.297Z,95651.00
2022-12-11T15:53:16.559Z,95646.56
2022-12-11T15:56:17.223Z,95652.91
2022-12-11T15:59:21.823Z,95659.63
2022-12-11T16:02:19.041Z,95659.09
2022-12-11T16:05:16.664Z,95659.50
2022-12-11T16:08:17.457Z,95665.28
2022-12-11T16:11:14.607Z,95664.88
2022-12-11T16:14:11.733Z,95665.34
2022-12-11T16:17:10.702Z,95671.31
2022-12-11T16:20:10.081Z,95668.22
2022-12-11T16:23:08.470Z,95668.38
2022-12-11T16:26:09.662Z,95664.66
2022-12-11T16:29:06.550Z,95660.63
2022-12-11T16:32:04.382Z,95661.94
2022-12-11T16:35:01.578Z,95661.53
2022-12-11T16:37:58.587Z,95664.88
2022-12-11T16:41:02.414Z,95662.13
2022-12-11T16:44:01.576Z,95658.69
2022-12-11T16:46:58.828Z,95676.75
2022-12-11T16:49:59.348Z,95669.72
2022-12-11T16:52:57.125Z,95672.34
2022-12-11T16:55:54.170Z,95670.75
2022-12-11T16:58:51.159Z,95677.66
2022-12-11T17:01:50.481Z,95679.34
2022-12-11T17:04:53.642Z,95689.00
2022-12-11T17:07:53.487Z,95682.28
2022-12-11T17:10:52.147Z,95679.78
2022-12-11T17:13:58.379Z,95677.72
2022-12-11T17:16:56.690Z,95686.22
2022-12-11T17:19:53.678Z,95682.81
2022-12-11T17:22:50.830Z,95681.47
2022-12-11T17:25:48.849Z,95676.72
2022-12-11T17:28:46.082Z,95678.06
2022-12-11T17:31:43.028Z,95685.13
2022-12-11T17:34:40.323Z,95686.56
2022-12-11T17:37:37.574Z,95686.47
2022-12-11T17:40:34.580Z,95689.97
2022-12-11T17:43:31.589Z,95688.84
2022-12-11T17:46:28.587Z,95695.97
2022-12-11T17:49:26.203Z,95691.50
2022-12-11T17:52:23.371Z,95694.25
2022-12-11T17:55:20.433Z,95696.72
2022-12-11T17:58:21.870Z,95691.69
2022-12-11T18:01:19.841Z,95690.44
2022-12-11T18:04:16.936Z,95690.28
2022-12-11T18:07:13.957Z,95692.28
2022-12-11T18:10:11.004Z,95684.50
2022-12-11T18:13:08.052Z,95689.66
2022-12-11T18:16:28.201Z,95688.47
2022-12-11T18:19:27.054Z,95692.59
2022-12-11T18:22:24.191Z,95697.09
2022-12-11T18:25:21.376Z,95695.03
2022-12-11T18:28:18.506Z,95690.81
2022-12-11T18:31:16.269Z,95689.56
2022-12-11T18:34:13.393Z,95696.38
2022-12-11T18:37:10.249Z,95690.25
2022-12-11T18:40:10.569Z,95694.22
2022-12-11T18:43:07.523Z,95690.28
2022-12-11T18:46:14.912Z,95684.81
2022-12-11T18:49:12.574Z,95688.22
2022-12-11T18:52:09.563Z,95691.31
2022-12-11T18:55:10.334Z,95682.69
2022-12-11T18:58:07.747Z,95688.16
2022-12-11T19:01:25.349Z,95688.22
2022-12-11T19:04:22.345Z,95689.56
2022-12-11T19:07:19.267Z,95687.41
2022-12-11T19:10:16.382Z,95688.66
2022-12-11T19:13:13.836Z,95690.84
2022-12-11T19:16:19.546Z,95686.09
2022-12-11T19:19:20.053Z,95701.22
2022-12-11T19:22:17.281Z,95695.88
2022-12-11T19:25:14.542Z,95696.97
2022-12-11T19:28:11.674Z,95698.06
2022-12-11T19:31:15.482Z,95697.94
2022-12-11T19:34:12.739Z,95693.50
2022-12-11T19:37:09.829Z,95698.78
2022-12-11T19:40:09.392Z,95690.16
2022-12-11T19:43:06.301Z,95695.69
2022-12-11T19:46:08.404Z,95702.06
2022-12-11T19:49:06.049Z,95701.34
2022-12-11T19:52:04.522Z,95699.44
2022-12-11T19:55:04.833Z,95694.31
2022-12-11T19:58:01.687Z,95698.06
2022-12-11T20:01:00.347Z,95701.75
2022-12-11T20:04:08.166Z,95694.34
2022-12-11T20:07:05.079Z,95698.47
2022-12-11T20:10:01.958Z,95694.69
2022-12-11T20:12:59.162Z,95701.63
2022-12-11T20:15:56.102Z,95706.06
2022-12-11T20:18:54.795Z,95710.81
2022-12-11T20:21:51.638Z,95711.94
2022-12-11T20:24:49.053Z,95713.06
2022-12-11T20:27:46.690Z,95704.09
2022-12-11T20:30:43.732Z,95709.06
2022-12-11T20:33:40.673Z,95718.19
2022-12-11T20:36:37.795Z,95719.09
2022-12-11T20:39:35.650Z,95707.53
2022-12-11T20:42:33.283Z,95710.06
2022-12-11T20:45:30.234Z,95712.69
2022-12-11T20:48:28.207Z,95706.41
2022-12-11T20:51:26.583Z,95707.19
2022-12-11T20:54:23.591Z,95707.72
2022-12-11T20:57:21.526Z,95706.22
2022-12-11T21:00:19.089Z,95705.63
2022-12-11T21:03:16.042Z,95714.53
2022-12-11T21:06:41.921Z,95711.44
2022-12-11T21:09:39.060Z,95715.31
2022-12-11T21:12:38.095Z,95701.13
2022-12-11T21:15:39.415Z,95702.94
2022-12-11T21:18:37.165Z,95706.41
2022-12-11T21:21:39.704Z,95702.47
2022-12-11T21:24:36.607Z,95708.97
2022-12-11T21:27:34.007Z,95707.47
2022-12-11T21:30:30.843Z,95705.78
2022-12-11T21:33:27.736Z,95702.38
2022-12-11T21:36:24.898Z,95706.34
2022-12-11T21:39:22.306Z,95702.72
2022-12-11T21:42:19.143Z,95708.38
2022-12-11T21:45:59.889Z,95711.91
2022-12-11T21:48:33.111Z,95705.34
2022-12-11T21:51:37.670Z,95708.03
2022-12-11T21:54:35.860Z,95709.56
2022-12-11T21:57:32.922Z,95713.16
2022-12-11T22:00:30.011Z,95714.47
2022-12-11T22:03:26.855Z,95718.56
2022-12-11T22:06:24.193Z,95709.72
2022-12-11T22:09:21.043Z,95705.06
2022-12-11T22:12:27.035Z,95705.16
2022-12-11T22:15:23.947Z,95713.53
2022-12-11T22:18:21.628Z,95715.81
2022-12-11T22:21:19.263Z,95721.41
2022-12-11T22:24:16.229Z,95717.94
2022-12-11T22:27:13.189Z,95727.09
2022-12-11T22:30:11.465Z,95715.84
2022-12-11T22:33:08.727Z,95716.84
2022-12-11T22:36:06.481Z,95714.13
2022-12-11T22:39:03.783Z,95716.88
2022-12-11T22:42:00.632Z,95716.09
2022-12-11T22:44:57.475Z,95718.41
2022-12-11T22:47:54.293Z,95717.16
2022-12-11T22:50:51.166Z,95709.97
2022-12-11T22:53:48.098Z,95712.97
2022-12-11T22:56:44.980Z,95732.56
2022-12-11T22:59:41.993Z,95722.00
2022-12-11T23:02:38.980Z,95728.19
2022-12-11T23:05:38.888Z,95729.69
2022-12-11T23:08:36.281Z,95736.53
2022-12-11T23:11:38.166Z,95743.94
2022-12-11T23:14:35.216Z,95726.34
2022-12-11T23:17:32.100Z,95731.13
2022-12-11T23:20:29.195Z,95743.97
2022-12-11T23:23:26.048Z,95736.31
2022-12-11T23:26:23.406Z,95753.63
2022-12-11T23:29:20.288Z,95751.72
2022-12-11T23:32:17.132Z,95753.19
2022-12-11T23:35:14.397Z,95748.94
2022-12-11T23:38:11.552Z,95741.94
2022-12-11T23:41:11.777Z,95750.53
2022-12-11T23:44:10.455Z,95749.25
2022-12-11T23:47:07.308Z,95745.00
2022-12-11T23:50:05.002Z,95750.56
2022-12-11T23:53:01.893Z,95744.53
2022-12-11T23:56:09.478Z,95756.00
2022-12-11T23:59:06.397Z,95749.91
